Time;durP1;ratioP1;P1;durP2;ratioP2;P2;SDS_P1;SDS_P2;PMS_P1;PMS_P2;Temp;Humidity;BMP_temperature;BMP_pressure;BME280_temperature;BME280_humidity;BME280_pressure;Samples;Min_cycle;Max_cycle;Signal;HPM_P1;HPM_P2
2021/06/16 00:01:11;;;;;;;11.02;2.00;;;;;;;14.80;81.86;101704.91;6223634;28;20042;-77
2021/06/16 00:04:13;;;;;;;8.45;2.40;;;;;;;14.75;81.84;101696.38;6223448;28;20497;-77
2021/06/16 00:07:16;;;;;;;13.73;2.38;;;;;;;14.67;82.74;101686.19;6223284;28;20058;-77
2021/06/16 00:10:20;;;;;;;8.07;2.47;;;;;;;14.61;83.17;101708.56;6223176;28;20064;-77
2021/06/16 00:13:21;;;;;;;9.45;3.20;;;;;;;14.52;84.39;101695.84;6223794;28;20042;-77
2021/06/16 00:16:22;;;;;;;7.85;2.25;;;;;;;14.58;83.46;101695.53;6223661;28;20061;-77
2021/06/16 00:19:24;;;;;;;14.82;2.78;;;;;;;14.55;83.55;101690.38;6224495;28;20053;-77
2021/06/16 00:22:29;;;;;;;12.63;2.70;;;;;;;14.47;83.61;101692.56;6227791;28;20046;-78
2021/06/16 00:25:31;;;;;;;13.27;3.25;;;;;;;14.51;83.87;101698.56;6226411;28;20128;-77
2021/06/16 00:28:33;;;;;;;9.55;2.70;;;;;;;14.53;84.19;101696.69;6226519;28;20050;-77
2021/06/16 00:31:34;;;;;;;10.15;2.67;;;;;;;14.38;84.63;101693.91;6226274;28;20050;-77
2021/06/16 00:34:36;;;;;;;9.05;2.70;;;;;;;14.30;85.78;101688.19;6226589;28;20053;-77
2021/06/16 00:37:40;;;;;;;14.82;2.75;;;;;;;14.28;85.39;101691.84;6226111;28;20053;-77
2021/06/16 00:40:41;;;;;;;6.60;2.13;;;;;;;14.20;85.74;101693.09;6226425;28;20054;-77
2021/06/16 00:43:43;;;;;;;6.45;2.72;;;;;;;14.18;86.19;101694.16;6226366;28;20391;-77
2021/06/16 00:46:44;;;;;;;9.00;2.58;;;;;;;14.06;85.99;101693.00;6225955;28;20053;-77
2021/06/16 00:49:46;;;;;;;6.65;2.28;;;;;;;13.98;87.30;101683.75;6225431;28;20394;-77
2021/06/16 00:52:49;;;;;;;9.85;2.33;;;;;;;14.00;87.08;101680.09;6226007;28;20057;-77
2021/06/16 00:55:50;;;;;;;7.55;2.95;;;;;;;14.01;86.96;101679.16;6225818;28;20449;-77
2021/06/16 00:58:51;;;;;;;11.05;2.90;;;;;;;13.97;86.65;101674.97;6226038;28;20056;-77
2021/06/16 01:01:54;;;;;;;7.63;2.70;;;;;;;13.98;86.37;101675.81;6225811;28;20046;-77
2021/06/16 01:04:57;;;;;;;7.13;2.55;;;;;;;13.97;87.12;101682.91;6225589;28;20060;-77
2021/06/16 01:08:02;;;;;;;11.80;2.67;;;;;;;13.89;87.60;101683.28;6225527;28;20058;-77
2021/06/16 01:11:08;;;;;;;15.68;2.72;;;;;;;13.86;87.40;101677.34;6225606;28;20049;-77
2021/06/16 01:14:13;;;;;;;6.03;2.20;;;;;;;13.86;87.26;101678.19;6225578;28;20054;-77
2021/06/16 01:17:20;;;;;;;8.80;2.55;;;;;;;13.78;87.57;101677.72;6225324;28;20053;-77
2021/06/16 01:20:29;;;;;;;8.60;2.72;;;;;;;13.78;88.04;101683.00;6225678;28;20056;-77
2021/06/16 01:23:52;;;;;;;13.55;2.92;;;;;;;13.75;88.29;101680.50;6225299;28;20053;-77
2021/06/16 01:26:55;;;;;;;11.85;2.88;;;;;;;13.73;88.45;101685.03;6225290;28;20402;-77
2021/06/16 01:29:58;;;;;;;11.00;3.08;;;;;;;13.70;88.48;101686.03;6225003;28;20073;-77
2021/06/16 01:33:01;;;;;;;7.93;2.78;;;;;;;13.69;88.79;101680.84;6225024;28;20049;-77
2021/06/16 01:36:03;;;;;;;9.65;2.63;;;;;;;13.66;89.54;101681.00;6224763;28;20528;-77
2021/06/16 01:39:07;;;;;;;15.50;3.00;;;;;;;13.56;90.45;101677.97;6225197;28;20049;-77
2021/06/16 01:42:17;;;;;;;7.57;2.50;;;;;;;13.54;90.16;101676.34;6224885;28;20493;-77
2021/06/16 01:45:20;;;;;;;9.90;3.15;;;;;;;13.51;89.75;101673.84;6224937;28;20116;-77
2021/06/16 01:48:22;;;;;;;8.10;2.90;;;;;;;13.51;89.58;101666.78;6224327;28;20046;-77
2021/06/16 01:51:25;;;;;;;13.70;3.25;;;;;;;13.42;89.59;101664.63;6224551;28;20046;-77
2021/06/16 01:54:28;;;;;;;9.38;2.90;;;;;;;13.33;90.03;101665.94;6224758;28;20046;-77
2021/06/16 01:57:30;;;;;;;9.82;2.88;;;;;;;13.28;90.37;101672.38;6224241;28;20061;-77
2021/06/16 02:00:32;;;;;;;10.70;2.80;;;;;;;13.23;91.09;101663.84;6224309;28;20042;-77
2021/06/16 02:03:34;;;;;;;9.73;3.15;;;;;;;13.20;90.63;101665.66;6224445;28;20065;-77
2021/06/16 02:06:40;;;;;;;9.88;2.70;;;;;;;13.19;90.71;101669.22;6224149;28;20053;-77
2021/06/16 02:09:45;;;;;;;10.00;2.80;;;;;;;13.09;90.95;101662.69;6223890;28;20556;-77
2021/06/16 02:12:48;;;;;;;8.60;2.97;;;;;;;13.08;90.94;101654.84;6224252;28;20516;-78
2021/06/16 02:15:55;;;;;;;18.13;3.55;;;;;;;13.08;90.21;101658.34;6224186;28;20057;-77
2021/06/16 02:19:02;;;;;;;7.50;2.72;;;;;;;13.08;89.78;101658.34;6223816;28;20068;-77
2021/06/16 02:22:06;;;;;;;7.45;3.38;;;;;;;13.07;89.91;101655.78;6223772;28;20050;-77
2021/06/16 02:25:09;;;;;;;11.75;4.78;;;;;;;12.99;90.46;101658.81;6223826;28;20058;-77
2021/06/16 02:28:11;;;;;;;10.00;3.00;;;;;;;12.96;91.03;101651.03;6226098;28;20528;-77
2021/06/16 02:31:13;;;;;;;8.45;3.10;;;;;;;12.90;90.50;101651.34;6228361;28;20046;-77
2021/06/16 02:34:15;;;;;;;7.95;2.90;;;;;;;12.85;91.04;101653.31;6227776;28;20050;-77
2021/06/16 02:37:21;;;;;;;13.43;3.05;;;;;;;12.88;90.75;101653.19;6228292;28;20057;-77
2021/06/16 02:40:23;;;;;;;12.85;3.20;;;;;;;12.81;90.67;101644.72;6228482;28;20050;-77
2021/06/16 02:43:26;;;;;;;8.98;2.88;;;;;;;12.76;91.03;101643.22;6226363;28;20061;-77
2021/06/16 02:46:30;;;;;;;10.00;3.78;;;;;;;12.72;92.35;101650.44;6226970;28;20053;-77
2021/06/16 02:49:36;;;;;;;13.45;3.35;;;;;;;12.73;91.80;101651.28;6226028;28;20508;-77
2021/06/16 02:52:42;;;;;;;12.52;3.67;;;;;;;12.71;90.99;101638.16;6224953;28;20541;-77
2021/06/16 02:55:44;;;;;;;7.35;3.70;;;;;;;12.68;91.70;101639.19;6223399;28;20533;-77
2021/06/16 02:58:49;;;;;;;10.02;3.20;;;;;;;12.70;91.87;101636.47;6223017;28;20056;-77
2021/06/16 03:01:52;;;;;;;8.02;3.70;;;;;;;12.58;91.96;101631.75;6223287;28;20057;-77
2021/06/16 03:04:54;;;;;;;11.13;3.42;;;;;;;12.58;91.38;101637.91;6223012;28;20049;-77
2021/06/16 03:07:58;;;;;;;10.23;4.10;;;;;;;12.55;91.91;101632.78;6222765;28;20061;-77
2021/06/16 03:11:00;;;;;;;15.10;4.45;;;;;;;12.54;91.98;101638.13;6222607;28;20077;-77
2021/06/16 03:14:04;;;;;;;10.13;4.28;;;;;;;12.56;91.72;101631.84;6222716;28;20516;-77
2021/06/16 03:17:07;;;;;;;7.80;3.97;;;;;;;12.52;92.07;101632.91;6222348;28;20061;-77
2021/06/16 03:20:12;;;;;;;17.85;4.60;;;;;;;12.51;92.29;101628.56;6222567;28;20049;-77
2021/06/16 03:23:14;;;;;;;14.18;4.00;;;;;;;12.54;92.16;101635.50;6222644;28;20413;-77
2021/06/16 03:26:17;;;;;;;13.13;4.03;;;;;;;12.54;92.50;101636.34;6222296;28;20049;-77
2021/06/16 03:29:21;;;;;;;11.70;4.30;;;;;;;12.52;91.89;101632.91;6222052;28;20050;-77
2021/06/16 03:32:24;;;;;;;14.23;4.55;;;;;;;12.54;92.31;101627.59;6222387;28;20042;-77
2021/06/16 03:35:26;;;;;;;16.00;4.45;;;;;;;12.53;92.19;101633.75;6222122;28;20489;-77
2021/06/16 03:38:28;;;;;;;9.48;4.10;;;;;;;12.51;92.80;101630.34;6220726;28;20513;-77
2021/06/16 03:41:30;;;;;;;10.95;3.88;;;;;;;12.54;92.76;101633.72;6219821;28;20497;-77
2021/06/16 03:44:35;;;;;;;10.98;3.97;;;;;;;12.56;93.11;101633.63;6221786;28;20057;-77
2021/06/16 03:47:38;;;;;;;13.60;3.90;;;;;;;12.57;94.14;101628.28;6220032;28;20569;-77
2021/06/16 03:50:41;;;;;;;10.85;4.40;;;;;;;12.56;93.37;101629.19;6222078;28;20052;-77
2021/06/16 03:53:43;;;;;;;16.92;4.22;;;;;;;12.57;93.02;101624.78;6222547;28;20516;-77
2021/06/16 03:56:47;;;;;;;9.70;3.70;;;;;;;12.60;93.71;101627.28;6227216;28;20054;-77
2021/06/16 03:59:50;;;;;;;16.63;4.50;;;;;;;12.64;93.24;101624.44;6226805;28;20058;-77
2021/06/16 04:02:52;;;;;;;18.98;5.80;;;;;;;12.72;93.32;101633.72;6227165;28;20069;-77
2021/06/16 04:05:53;;;;;;;10.27;4.18;;;;;;;12.70;93.46;101626.75;6227004;28;20049;-77
2021/06/16 04:08:55;;;;;;;13.88;4.50;;;;;;;12.75;92.77;101623.91;6226446;28;20045;-77
2021/06/16 04:11:58;;;;;;;12.68;4.22;;;;;;;12.72;93.07;101625.81;6226895;28;20041;-77
2021/06/16 04:15:01;;;;;;;11.85;3.88;;;;;;;12.74;92.79;101629.25;6226738;28;20053;-77
2021/06/16 04:18:03;;;;;;;8.80;4.32;;;;;;;12.77;93.71;101610.66;6226599;28;20050;-77
2021/06/16 04:21:05;;;;;;;12.73;3.72;;;;;;;12.78;93.28;101615.00;6226499;28;20048;-77
2021/06/16 04:24:07;;;;;;;20.13;4.15;;;;;;;12.70;92.63;101616.22;6226595;28;20053;-77
2021/06/16 04:27:09;;;;;;;10.77;3.92;;;;;;;12.77;92.92;101615.94;6226083;28;20065;-77
2021/06/16 04:30:14;;;;;;;8.55;3.42;;;;;;;12.75;92.81;101615.13;6226295;28;20054;-77
2021/06/16 04:33:16;;;;;;;11.25;4.68;;;;;;;12.78;91.98;101613.22;6226245;28;20072;-77
2021/06/16 04:36:17;;;;;;;12.18;4.13;;;;;;;12.85;92.05;101613.75;6226278;28;20077;-77
2021/06/16 04:39:18;;;;;;;12.13;4.13;;;;;;;12.85;92.13;101613.75;6226350;28;20505;-79
2021/06/16 04:42:20;;;;;;;8.40;3.53;;;;;;;12.88;92.48;101610.97;6226379;28;20050;-78
2021/06/16 04:45:23;;;;;;;10.40;3.63;;;;;;;12.99;93.25;101613.06;6226481;28;20053;-78
2021/06/16 04:48:25;;;;;;;8.38;3.42;;;;;;;13.10;92.73;101611.63;6225927;28;20053;-78
2021/06/16 04:51:26;;;;;;;10.52;3.60;;;;;;;13.14;92.48;101613.19;6225997;28;20050;-78
2021/06/16 04:54:28;;;;;;;10.35;4.03;;;;;;;13.07;92.37;101603.84;6226085;28;20085;-78
2021/06/16 04:57:29;;;;;;;10.38;3.85;;;;;;;13.15;92.73;101609.59;6226312;28;20081;-78
2021/06/16 05:00:32;;;;;;;10.50;5.10;;;;;;;13.17;91.84;101604.22;6226208;28;20417;-79
2021/06/16 05:03:33;;;;;;;11.13;3.67;;;;;;;13.25;92.93;101601.25;6226479;28;20060;-78
2021/06/16 05:06:35;;;;;;;8.15;3.03;;;;;;;13.30;92.13;101594.78;6224905;28;20508;-78
2021/06/16 05:09:36;;;;;;;5.90;3.60;;;;;;;13.30;91.90;101593.94;6225849;28;20054;-78
2021/06/16 05:12:37;;;;;;;5.95;3.72;;;;;;;13.35;92.14;101591.91;6225852;28;20073;-79
2021/06/16 05:15:40;;;;;;;7.72;3.03;;;;;;;13.44;91.62;101592.31;6225616;28;20058;-78
2021/06/16 05:18:43;;;;;;;11.55;3.70;;;;;;;13.53;91.69;101583.03;6225595;28;20493;-78
2021/06/16 05:21:46;;;;;;;8.18;3.13;;;;;;;13.64;90.88;101583.34;6225898;28;20103;-78
2021/06/16 05:24:48;;;;;;;10.88;3.72;;;;;;;13.68;91.23;101581.41;6225321;28;20074;-78
2021/06/16 05:27:49;;;;;;;12.48;4.07;;;;;;;13.81;91.65;101582.47;6225241;28;20070;-78
2021/06/16 05:30:52;;;;;;;14.40;3.53;;;;;;;13.80;91.26;101578.09;6225368;28;20046;-79
2021/06/16 05:33:53;;;;;;;9.55;3.17;;;;;;;13.88;91.26;101578.53;6225493;28;20120;-78
2021/06/16 05:36:55;;;;;;;9.27;3.05;;;;;;;13.96;90.33;101576.34;6225620;28;20049;-79
2021/06/16 05:39:56;;;;;;;8.73;2.63;;;;;;;14.00;90.34;101576.19;6225503;28;20057;-79
2021/06/16 05:42:57;;;;;;;11.57;2.70;;;;;;;14.09;89.85;101575.69;6225340;28;20058;-79
2021/06/16 05:46:01;;;;;;;8.18;2.70;;;;;;;14.18;89.21;101577.81;6225411;28;20493;-78
2021/06/16 05:49:03;;;;;;;9.32;3.35;;;;;;;14.29;88.41;101572.78;6225163;28;20058;-79
2021/06/16 05:52:05;;;;;;;10.27;3.17;;;;;;;14.36;89.03;101568.03;6224705;28;20409;-79
2021/06/16 05:55:07;;;;;;;6.88;2.40;;;;;;;14.39;88.57;101560.75;6225007;28;20045;-79
2021/06/16 05:58:09;;;;;;;9.15;3.10;;;;;;;14.40;88.89;101553.69;6224566;28;20054;-79
2021/06/16 06:01:11;;;;;;;4.75;2.70;;;;;;;14.47;88.11;101557.66;6225019;28;20053;-78
2021/06/16 06:04:13;;;;;;;9.35;2.67;;;;;;;14.51;88.07;101555.75;6224847;28;20061;-79
2021/06/16 06:07:15;;;;;;;13.90;3.13;;;;;;;14.59;87.21;101559.66;6224802;28;20057;-78
2021/06/16 06:10:16;;;;;;;9.00;2.72;;;;;;;14.65;87.54;101563.75;6224658;28;20061;-79
2021/06/16 06:13:18;;;;;;;8.70;2.42;;;;;;;14.74;87.55;101555.28;6223022;28;20048;-78
2021/06/16 06:16:20;;;;;;;8.85;2.35;;;;;;;14.81;87.58;101556.63;6224011;28;20046;-79
2021/06/16 06:19:22;;;;;;;9.20;2.58;;;;;;;14.83;88.23;101556.53;6224098;28;20513;-79
2021/06/16 06:22:23;;;;;;;9.60;2.65;;;;;;;14.88;87.59;101555.31;6224568;28;20057;-79
2021/06/16 06:25:24;;;;;;;7.82;2.60;;;;;;;14.99;87.22;101565.31;6224442;28;20053;-79
2021/06/16 06:28:26;;;;;;;6.63;2.80;;;;;;;15.06;87.38;101557.84;6224264;28;20053;-78
2021/06/16 06:31:29;;;;;;;13.85;3.03;;;;;;;15.17;86.78;101545.69;6224004;28;20069;-78
2021/06/16 06:34:30;;;;;;;6.20;2.60;;;;;;;15.26;86.40;101554.00;6223806;28;20069;-79
2021/06/16 06:37:31;;;;;;;8.18;3.10;;;;;;;15.31;86.89;101542.19;6223465;28;20057;-79
2021/06/16 06:40:33;;;;;;;10.18;3.15;;;;;;;15.33;87.11;101544.75;6224282;28;20054;-78
2021/06/16 06:43:34;;;;;;;7.25;2.10;;;;;;;15.40;86.52;101540.78;6223708;28;20049;-79
2021/06/16 06:46:37;;;;;;;12.98;2.78;;;;;;;15.45;86.64;101538.72;6223964;28;20417;-78
2021/06/16 06:49:38;;;;;;;9.80;2.22;;;;;;;15.50;85.96;101538.44;6222879;28;20057;-78
2021/06/16 06:52:40;;;;;;;5.13;2.22;;;;;;;15.59;86.25;101536.06;6223762;28;20050;-78
2021/06/16 06:55:42;;;;;;;8.90;2.55;;;;;;;15.67;86.13;101535.63;6223831;28;20069;-79
2021/06/16 06:58:44;;;;;;;8.15;2.80;;;;;;;15.82;84.47;101520.56;6223603;28;20104;-78
2021/06/16 07:01:47;;;;;;;6.03;2.33;;;;;;;15.86;84.93;101528.22;6223451;28;20046;-78
2021/06/16 07:04:48;;;;;;;7.90;2.78;;;;;;;15.89;84.57;101517.41;6223339;28;20049;-78
2021/06/16 07:07:49;;;;;;;11.98;3.88;;;;;;;15.96;83.46;101509.94;6223168;28;20076;-79
2021/06/16 07:10:51;;;;;;;8.68;3.03;;;;;;;16.04;84.25;101515.59;6223240;28;20057;-78
2021/06/16 07:13:52;;;;;;;9.10;3.30;;;;;;;16.09;84.72;101512.66;6223704;28;20050;-79
2021/06/16 07:16:55;;;;;;;7.80;3.17;;;;;;;16.13;85.72;101519.47;6223474;28;20046;-79
2021/06/16 07:19:56;;;;;;;6.05;2.92;;;;;;;16.23;85.42;101517.91;6222922;28;20050;-79
2021/06/16 07:22:58;;;;;;;10.38;3.60;;;;;;;16.33;84.90;101510.22;6222533;28;20046;-78
2021/06/16 07:25:59;;;;;;;12.40;3.30;;;;;;;16.38;85.07;101500.16;6222787;28;20161;-78
2021/06/16 07:29:00;;;;;;;7.55;2.90;;;;;;;16.48;83.03;101499.44;6222054;28;20060;-79
2021/06/16 07:32:04;;;;;;;7.68;3.03;;;;;;;16.62;82.45;101502.97;6222759;28;20046;-79
2021/06/16 07:35:07;;;;;;;8.63;2.90;;;;;;;16.75;82.93;101490.63;6222970;28;20052;-78
2021/06/16 07:38:08;;;;;;;10.65;3.63;;;;;;;16.79;82.27;101480.66;6222770;28;20050;-78
2021/06/16 07:41:10;;;;;;;9.75;3.22;;;;;;;16.83;83.23;101480.34;6222795;28;20054;-79
2021/06/16 07:44:11;;;;;;;8.35;2.92;;;;;;;16.91;81.64;101485.13;6222813;28;20065;-79
2021/06/16 07:47:14;;;;;;;10.70;2.92;;;;;;;17.08;81.99;101484.84;6222709;28;20045;-78
2021/06/16 07:50:16;;;;;;;10.32;3.63;;;;;;;17.17;79.34;101481.53;6222056;28;20398;-78
2021/06/16 07:53:17;;;;;;;9.48;3.20;;;;;;;17.32;81.35;101484.94;6221265;28;20042;-78
2021/06/16 07:56:18;;;;;;;6.05;2.47;;;;;;;17.31;81.68;101479.72;6221972;28;20432;-79
2021/06/16 07:59:19;;;;;;;8.30;2.67;;;;;;;17.36;81.12;101482.91;6222515;28;20497;-79
2021/06/16 08:02:22;;;;;;;7.40;2.88;;;;;;;17.46;81.55;101483.97;6222916;28;20050;-79
2021/06/16 08:05:24;;;;;;;9.43;2.70;;;;;;;17.55;81.02;101482.47;6222456;28;20042;-79
2021/06/16 08:08:25;;;;;;;8.35;2.20;;;;;;;17.62;80.71;101479.28;6226632;28;20054;-78
2021/06/16 08:11:27;;;;;;;13.05;2.42;;;;;;;17.86;79.02;101468.72;6224387;28;20049;-78
2021/06/16 08:14:28;;;;;;;8.93;2.38;;;;;;;17.89;77.87;101473.78;6223307;28;20053;-78
2021/06/16 08:17:31;;;;;;;12.15;2.97;;;;;;;17.92;79.02;101468.25;6225548;28;20061;-77
2021/06/16 08:20:32;;;;;;;11.48;2.78;;;;;;;18.00;78.09;101462.38;6226362;28;20520;-79
2021/06/16 08:23:34;;;;;;;5.45;1.90;;;;;;;18.06;78.90;101471.72;6227358;28;20053;-80
2021/06/16 08:26:35;;;;;;;7.28;2.90;;;;;;;18.16;79.23;101464.75;6227494;28;20057;-78
2021/06/16 08:29:38;;;;;;;9.95;2.83;;;;;;;18.24;76.77;101462.38;6232495;28;20140;-80
2021/06/16 08:32:41;;;;;;;12.70;2.53;;;;;;;18.23;77.06;101458.03;6231341;28;20042;-78
2021/06/16 08:35:42;;;;;;;11.15;2.17;;;;;;;18.32;76.94;101459.16;6229173;28;20057;-78
2021/06/16 08:38:43;;;;;;;7.57;2.50;;;;;;;18.41;76.66;101459.31;6227487;28;20050;-79
2021/06/16 08:41:45;;;;;;;9.45;2.35;;;;;;;18.54;76.13;101453.91;6229882;28;20046;-78
2021/06/16 08:44:52;;;;;;;9.43;2.45;;;;;;;18.68;75.93;101445.72;6230175;28;20049;-77
2021/06/16 08:47:54;;;;;;;4.38;1.73;;;;;;;18.75;75.77;101446.13;6231896;28;20153;-77
2021/06/16 08:50:56;;;;;;;9.32;2.50;;;;;;;18.80;75.04;101446.63;6234880;28;20057;-78
2021/06/16 08:53:57;;;;;;;6.43;2.00;;;;;;;18.89;74.01;101437.06;6231342;28;20420;-79
2021/06/16 08:56:58;;;;;;;9.88;2.33;;;;;;;19.01;73.02;101434.31;6233760;28;20049;-81
2021/06/16 09:00:00;;;;;;;7.45;2.20;;;;;;;19.12;74.10;101433.50;6231865;28;20053;-77
2021/06/16 09:03:03;;;;;;;12.30;2.90;;;;;;;19.18;73.62;101433.00;6229181;28;20053;-77
2021/06/16 09:06:05;;;;;;;8.65;2.53;;;;;;;19.29;72.54;101418.81;6235146;28;20054;-79
2021/06/16 09:09:08;;;;;;;6.55;2.33;;;;;;;19.40;73.02;101413.50;6234680;28;20069;-78
2021/06/16 09:12:12;;;;;;;14.82;2.55;;;;;;;19.46;70.19;101413.00;6234933;28;20050;-78
2021/06/16 09:15:15;;;;;;;6.35;2.10;;;;;;;19.52;72.26;101412.50;6228748;28;20061;-79
2021/06/16 09:18:18;;;;;;;5.88;2.00;;;;;;;19.60;73.64;101409.25;6228605;28;20433;-79
2021/06/16 09:21:32;;;;;;;6.75;2.38;;;;;;;19.71;71.55;101400.38;6227509;28;20052;-79
2021/06/16 09:24:41;;;;;;;5.72;1.83;;;;;;;19.76;71.72;101406.19;6226800;28;20041;-79
2021/06/16 09:27:46;;;;;;;3.45;2.03;;;;;;;19.92;69.12;101403.94;6224787;28;20077;-79
2021/06/16 09:30:48;;;;;;;7.70;2.53;;;;;;;20.06;69.19;101401.97;6226788;28;20057;-79
2021/06/16 09:33:52;;;;;;;9.00;2.95;;;;;;;20.14;70.75;101405.69;6227082;28;20413;-79
2021/06/16 09:36:56;;;;;;;9.65;3.35;;;;;;;20.27;70.58;101395.69;6227377;28;20511;-79
2021/06/16 09:40:00;;;;;;;8.20;3.00;;;;;;;20.33;70.56;101404.16;6225250;28;20045;-78
2021/06/16 09:43:04;;;;;;;8.63;3.30;;;;;;;20.38;70.73;101396.59;6225986;28;20077;-79
2021/06/16 09:46:07;;;;;;;9.65;3.80;;;;;;;20.50;70.42;101392.94;6225304;28;20049;-78
2021/06/16 09:49:10;;;;;;;6.32;2.47;;;;;;;20.68;70.48;101393.19;6225271;28;20045;-78
2021/06/16 09:52:26;;;;;;;7.22;2.70;;;;;;;20.75;70.56;101391.66;6229479;28;20053;-77
2021/06/16 09:55:30;;;;;;;11.18;3.45;;;;;;;20.81;71.13;101387.66;6229217;28;20053;-77
2021/06/16 09:58:39;;;;;;;9.88;3.58;;;;;;;20.88;69.80;101389.63;6228375;28;20046;-79
2021/06/16 10:01:49;;;;;;;13.30;3.35;;;;;;;21.03;70.80;101380.31;6201526;28;20046;-78
2021/06/16 10:04:56;;;;;;;9.45;3.13;;;;;;;21.22;71.32;101384.03;6215389;28;20180;-77
2021/06/16 10:07:57;;;;;;;11.18;3.35;;;;;;;21.40;70.87;101378.91;6221928;28;20049;-78
2021/06/16 10:10:59;;;;;;;7.70;3.85;;;;;;;21.53;70.10;101376.84;6224634;28;20061;-79
2021/06/16 10:14:00;;;;;;;11.63;4.20;;;;;;;21.65;70.62;101373.03;6224350;28;20046;-79
2021/06/16 10:17:02;;;;;;;9.23;3.88;;;;;;;21.85;70.02;101370.41;6224596;28;20402;-80
2021/06/16 10:20:08;;;;;;;13.25;5.32;;;;;;;22.03;68.80;101368.72;6221985;28;20057;-78
2021/06/16 10:23:10;;;;;;;7.93;4.88;;;;;;;22.06;66.81;101355.03;6223837;28;20064;-79
2021/06/16 10:26:15;;;;;;;10.32;4.40;;;;;;;22.11;70.43;101360.81;6223152;28;20050;-79
2021/06/16 10:29:17;;;;;;;13.98;5.28;;;;;;;22.22;67.28;101362.53;6223255;28;20061;-79
2021/06/16 10:32:19;;;;;;;7.78;4.47;;;;;;;22.27;67.60;101352.25;6223797;28;20509;-79
2021/06/16 10:35:35;;;;;;;12.32;5.28;;;;;;;22.47;66.31;101353.06;6223910;28;20045;-80
2021/06/16 10:38:38;;;;;;;9.60;5.03;;;;;;;22.58;67.53;101344.88;6227868;28;20501;-79
2021/06/16 10:41:59;;;;;;;13.00;5.50;;;;;;;22.78;67.79;101353.69;6229408;28;20053;-78
2021/06/16 10:45:20;;;;;;;15.27;5.82;;;;;;;23.01;64.16;101340.78;6220674;28;20100;-78
2021/06/16 10:48:22;;;;;;;12.70;4.88;;;;;;;23.06;64.92;101349.22;6232015;28;20050;-82
2021/06/16 10:51:32;;;;;;;12.00;4.95;;;;;;;23.22;68.68;101340.53;6232773;28;20049;-80
2021/06/16 10:54:35;;;;;;;16.33;5.40;;;;;;;23.40;66.02;101333.38;6232616;28;20046;-80
2021/06/16 10:57:36;;;;;;;13.48;5.07;;;;;;;23.66;65.52;101340.69;6234160;28;20056;-80
2021/06/16 11:00:38;;;;;;;11.77;4.65;;;;;;;23.79;64.00;101325.06;6234621;28;20054;-79
2021/06/16 11:04:03;;;;;;;11.35;4.57;;;;;;;24.05;64.32;101325.97;6233326;28;20049;-79
2021/06/16 11:07:39;;;;;;;13.90;4.45;;;;;;;24.13;63.09;101327.03;6234659;28;20639;-80
2021/06/16 11:10:58;;;;;;;12.55;4.82;;;;;;;24.28;61.71;101309.34;6236953;28;20124;-80
2021/06/16 11:13:59;;;;;;;8.53;4.57;;;;;;;24.54;60.71;101309.38;6246125;28;20126;-80
2021/06/16 11:17:01;;;;;;;6.07;3.72;;;;;;;24.84;58.12;101297.25;6260697;28;20045;-80
2021/06/16 11:20:06;;;;;;;14.02;4.20;;;;;;;25.10;59.67;101297.22;6260264;28;20050;-80
2021/06/16 11:23:20;;;;;;;14.23;3.47;;;;;;;25.50;57.54;101299.19;6260069;28;20045;-80
2021/06/16 11:26:41;;;;;;;11.52;3.88;;;;;;;25.56;57.25;101292.28;6260338;28;20093;-80
2021/06/16 11:30:01;;;;;;;10.10;4.50;;;;;;;25.79;55.91;101292.50;6262161;28;20060;-80
2021/06/16 11:33:35;;;;;;;11.48;4.20;;;;;;;26.02;58.40;101273.81;6265522;28;20049;-80
2021/06/16 11:36:39;;;;;;;13.40;4.53;;;;;;;26.18;58.41;101279.19;6263647;28;20145;-80
2021/06/16 11:39:42;;;;;;;12.02;3.70;;;;;;;26.55;55.47;101284.00;6262087;28;20063;-81
2021/06/16 11:42:44;;;;;;;10.18;4.05;;;;;;;26.80;53.42;101275.84;6262887;28;20045;-80
2021/06/16 11:45:46;;;;;;;10.95;4.03;;;;;;;27.21;53.20;101262.19;6258387;28;20049;-80
2021/06/16 11:48:49;;;;;;;9.82;3.75;;;;;;;27.40;51.52;101261.72;6253951;28;20054;-80
2021/06/16 11:51:52;;;;;;;9.05;3.78;;;;;;;27.57;54.75;101257.03;6224534;28;20132;-79
2021/06/16 11:54:55;;;;;;;12.13;3.67;;;;;;;27.80;51.82;101252.47;6221726;28;20054;-82
2021/06/16 11:57:56;;;;;;;14.93;4.05;;;;;;;28.02;51.79;101263.41;6222281;28;20478;-81
2021/06/16 12:01:10;;;;;;;9.55;4.00;;;;;;;28.28;49.50;101239.50;6221943;28;20061;-82
2021/06/16 12:04:13;;;;;;;9.10;3.60;;;;;;;28.40;50.82;101229.09;6222080;28;20058;-79
2021/06/16 12:07:23;;;;;;;9.15;4.38;;;;;;;28.70;47.81;101229.88;6221914;28;20053;-81
2021/06/16 12:10:28;;;;;;;9.18;3.80;;;;;;;28.96;49.48;101231.28;6221905;28;20057;-81
2021/06/16 12:13:29;;;;;;;17.65;3.72;;;;;;;29.09;48.96;101233.31;6222149;28;20046;-77
2021/06/16 12:16:34;;;;;;;11.13;3.75;;;;;;;28.97;48.32;101235.66;6226517;28;20053;-78
2021/06/16 12:19:37;;;;;;;8.68;3.97;;;;;;;28.97;46.58;101217.53;6228911;28;20053;-79
2021/06/16 12:22:38;;;;;;;7.40;3.78;;;;;;;29.26;46.89;101223.91;6228748;28;20061;-78
2021/06/16 12:25:41;;;;;;;6.65;3.47;;;;;;;29.14;45.46;101220.03;6226442;28;20056;-76
2021/06/16 12:28:44;;;;;;;10.07;3.83;;;;;;;29.23;48.15;101216.16;6228265;28;20045;-77
2021/06/16 12:31:48;;;;;;;8.55;3.83;;;;;;;29.20;47.00;101214.66;6227000;28;20762;-76
2021/06/16 12:35:10;;;;;;;11.60;4.22;;;;;;;29.21;46.07;101207.41;6226860;28;20042;-77
2021/06/16 12:38:13;;;;;;;13.73;4.20;;;;;;;29.33;45.52;101205.84;6229508;28;20073;-75
2021/06/16 12:41:23;;;;;;;5.28;3.47;;;;;;;29.67;50.14;101194.31;6226963;28;20052;-78
2021/06/16 12:44:26;;;;;;;10.25;3.25;;;;;;;29.82;44.03;101203.16;6226923;28;20050;-76
2021/06/16 12:47:32;;;;;;;7.07;3.60;;;;;;;30.17;43.64;101194.25;6227872;28;20126;-77
2021/06/16 12:50:35;;;;;;;9.68;3.95;;;;;;;30.22;44.99;101197.22;6225697;28;20054;-77
2021/06/16 12:53:38;;;;;;;6.97;3.50;;;;;;;30.31;45.99;101188.72;6225729;28;20046;-76
2021/06/16 12:56:43;;;;;;;6.05;3.88;;;;;;;30.38;44.49;101174.31;6225652;28;20077;-77
2021/06/16 12:59:47;;;;;;;7.05;3.67;;;;;;;30.58;44.33;101173.38;6225940;28;20057;-77
2021/06/16 13:02:49;;;;;;;13.00;4.07;;;;;;;30.31;44.17;101172.44;6227538;28;20497;-77
2021/06/16 13:05:52;;;;;;;7.95;3.75;;;;;;;30.46;44.48;101169.56;6227110;28;20050;-79
2021/06/16 13:09:00;;;;;;;12.50;3.42;;;;;;;30.55;43.87;101162.09;6225656;28;20050;-77
2021/06/16 13:12:05;;;;;;;8.25;3.72;;;;;;;30.65;43.90;101161.72;6226672;28;20054;-77
2021/06/16 13:15:10;;;;;;;8.45;3.65;;;;;;;30.58;44.80;101156.28;6226626;28;20046;-77
2021/06/16 13:18:26;;;;;;;7.70;3.58;;;;;;;30.70;43.72;101154.63;6223829;28;20057;-80
2021/06/16 13:21:27;;;;;;;8.65;3.88;;;;;;;30.79;44.38;101149.88;6226683;28;20046;-78
2021/06/16 13:24:28;;;;;;;10.27;3.70;;;;;;;30.87;45.31;101152.41;6226067;28;20056;-76
2021/06/16 13:27:46;;;;;;;11.65;4.43;;;;;;;30.76;41.01;101155.72;6223560;28;20420;-78
2021/06/16 13:30:47;;;;;;;6.70;3.72;;;;;;;30.86;42.45;101150.75;6224872;28;20057;-76
2021/06/16 13:33:50;;;;;;;9.93;3.63;;;;;;;30.66;41.70;101147.09;6223428;28;20060;-77
2021/06/16 13:36:53;;;;;;;8.90;3.40;;;;;;;30.85;42.50;101146.38;6226306;28;20042;-79
2021/06/16 13:39:54;;;;;;;7.50;3.70;;;;;;;30.88;42.99;101154.06;6226844;28;20080;-78
2021/06/16 13:42:58;;;;;;;13.13;3.60;;;;;;;31.00;43.49;101148.88;6226877;28;20053;-76
2021/06/16 13:46:00;;;;;;;10.50;4.10;;;;;;;30.72;41.44;101139.03;6226770;28;20060;-76
2021/06/16 13:49:01;;;;;;;12.15;3.35;;;;;;;30.71;41.83;101145.50;6227383;28;20054;-79
2021/06/16 13:52:03;;;;;;;9.15;3.97;;;;;;;30.96;43.51;101142.19;6226103;28;20046;-77
2021/06/16 13:55:06;;;;;;;7.28;3.60;;;;;;;30.89;42.16;101142.19;6226950;28;20053;-76
2021/06/16 13:58:09;;;;;;;12.48;4.07;;;;;;;30.93;42.95;101135.31;6227081;28;20064;-78
2021/06/16 14:01:10;;;;;;;5.68;3.40;;;;;;;31.16;42.99;101125.91;6228615;28;20052;-76
2021/06/16 14:04:14;;;;;;;5.30;3.47;;;;;;;30.98;43.44;101126.56;6228773;28;20053;-79
2021/06/16 14:07:15;;;;;;;7.32;3.53;;;;;;;31.10;43.60;101121.31;6227947;28;20413;-78
2021/06/16 14:10:17;;;;;;;9.55;3.78;;;;;;;31.16;41.24;101124.06;6222660;28;20054;-80